createdAt,value
2023-04-24T00:02:08.345Z,98382.56
2023-04-24T00:04:36.391Z,98379.75
2023-04-24T00:07:04.353Z,98381.25
2023-04-24T00:09:31.925Z,98374.56
2023-04-24T00:11:59.529Z,98379.41
2023-04-24T00:14:27.530Z,98386.72
2023-04-24T00:16:55.176Z,98373.41
2023-04-24T00:19:23.528Z,98383.25
2023-04-24T00:21:51.796Z,98385.06
2023-04-24T00:24:19.403Z,98394.88
2023-04-24T00:26:47.069Z,98391.53
2023-04-24T00:29:14.984Z,98380.22
2023-04-24T00:31:42.643Z,98388.38
2023-04-24T00:34:10.286Z,98387.56
2023-04-24T00:36:37.836Z,98385.72
2023-04-24T00:39:06.080Z,98388.72
2023-04-24T00:41:33.751Z,98384.72
2023-04-24T00:44:01.325Z,98387.22
2023-04-24T00:46:29.004Z,98379.72
2023-04-24T00:48:56.728Z,98388.06
2023-04-24T00:51:25.639Z,98382.03
2023-04-24T00:53:53.772Z,98382.38
2023-04-24T00:56:21.479Z,98382.69
2023-04-24T00:58:49.083Z,98381.88
2023-04-24T01:01:16.624Z,98379.06
2023-04-24T01:03:44.787Z,98384.72
2023-04-24T01:06:12.562Z,98386.72
2023-04-24T01:08:40.105Z,98378.25
2023-04-24T01:11:08.015Z,98376.06
2023-04-24T01:13:35.591Z,98379.09
2023-04-24T01:16:03.537Z,98363.75
2023-04-24T01:18:31.149Z,98368.94
2023-04-24T01:20:58.807Z,98373.41
2023-04-24T01:23:26.428Z,98366.59
2023-04-24T01:25:54.044Z,98360.75
2023-04-24T01:28:21.956Z,98361.09
2023-04-24T01:30:49.539Z,98365.06
2023-04-24T01:33:17.432Z,98353.09
2023-04-24T01:35:44.971Z,98354.59
2023-04-24T01:38:12.541Z,98356.25
2023-04-24T01:40:40.708Z,98357.06
2023-04-24T01:43:08.333Z,98357.78
2023-04-24T01:45:35.879Z,98356.41
2023-04-24T01:48:03.576Z,98366.59
2023-04-24T01:50:31.540Z,98363.41
2023-04-24T01:52:59.451Z,98356.13
2023-04-24T01:55:27.355Z,98357.44
2023-04-24T01:57:54.923Z,98346.47
2023-04-24T02:00:22.491Z,98355.09
2023-04-24T02:02:50.376Z,98359.44
2023-04-24T02:05:18.436Z,98359.28
2023-04-24T02:07:45.991Z,98358.13
2023-04-24T02:10:13.654Z,98355.44
2023-04-24T02:12:41.292Z,98360.59
2023-04-24T02:15:08.862Z,98357.81
2023-04-24T02:17:38.308Z,98354.97
2023-04-24T02:20:05.912Z,98359.16
2023-04-24T02:22:33.461Z,98354.63
2023-04-24T02:25:01.294Z,98373.13
2023-04-24T02:27:28.836Z,98365.13
2023-04-24T02:29:56.408Z,98375.63
2023-04-24T02:32:24.017Z,98375.09
2023-04-24T02:34:51.612Z,98379.41
2023-04-24T02:37:19.116Z,98369.59
2023-04-24T02:39:46.997Z,98378.06
2023-04-24T02:42:14.850Z,98380.88
2023-04-24T02:44:42.398Z,98383.00
2023-04-24T02:47:09.984Z,98372.69
2023-04-24T02:49:37.571Z,98382.16
2023-04-24T02:52:05.098Z,98382.00
2023-04-24T02:54:33.033Z,98375.66
2023-04-24T02:57:02.217Z,98369.69
2023-04-24T02:59:30.031Z,98376.16
2023-04-24T03:01:59.093Z,98372.16
2023-04-24T03:04:27.351Z,98386.78
2023-04-24T03:06:56.039Z,98385.28
2023-04-24T03:09:23.632Z,98386.28
2023-04-24T03:11:51.234Z,98389.09
2023-04-24T03:14:18.808Z,98391.09
2023-04-24T03:16:46.396Z,98386.91
2023-04-24T03:19:14.626Z,98388.25
2023-04-24T03:21:42.172Z,98391.53
2023-04-24T03:24:09.784Z,98400.00
2023-04-24T03:26:37.337Z,98411.81
2023-04-24T03:29:04.900Z,98415.78
2023-04-24T03:31:32.851Z,98410.78
2023-04-24T03:34:01.668Z,98412.91
2023-04-24T03:36:29.258Z,98408.75
2023-04-24T03:38:56.911Z,98414.06
2023-04-24T03:41:24.896Z,98425.56
2023-04-24T03:43:52.863Z,98439.00
2023-04-24T03:46:20.775Z,98420.38
2023-04-24T03:48:48.400Z,98424.19
2023-04-24T03:51:15.965Z,98424.38
2023-04-24T03:53:43.577Z,98421.84
2023-04-24T03:56:11.685Z,98439.63
2023-04-24T03:58:39.303Z,98436.97
2023-04-24T04:01:06.931Z,98440.63
2023-04-24T04:03:34.598Z,98438.13
2023-04-24T04:06:02.244Z,98434.47
2023-04-24T04:08:31.192Z,98441.47
2023-04-24T04:10:58.790Z,98434.47
2023-04-24T04:13:26.348Z,98437.97
2023-04-24T04:15:53.978Z,98437.97
2023-04-24T04:18:21.632Z,98450.44
2023-04-24T04:20:49.608Z,98448.59
2023-04-24T04:23:17.227Z,98456.59
2023-04-24T04:25:44.760Z,98445.94
2023-04-24T04:28:12.528Z,98444.13
2023-04-24T04:30:41.265Z,98437.28
2023-04-24T04:33:09.676Z,98435.94
2023-04-24T04:35:37.502Z,98436.56
2023-04-24T04:38:05.814Z,98422.06
2023-04-24T04:40:33.616Z,98431.34
2023-04-24T04:43:01.188Z,98428.16
2023-04-24T04:45:29.641Z,98437.13
2023-04-24T04:47:57.853Z,98445.13
2023-04-24T04:50:25.457Z,98439.47
2023-04-24T04:52:53.126Z,98446.16
2023-04-24T04:55:20.989Z,98447.22
2023-04-24T04:57:48.904Z,98438.59
2023-04-24T05:00:16.848Z,98449.59
2023-04-24T05:02:44.633Z,98439.63
2023-04-24T05:05:12.386Z,98433.34
2023-04-24T05:07:40.212Z,98443.81
2023-04-24T05:10:08.524Z,98439.47
2023-04-24T05:12:36.214Z,98439.63
2023-04-24T05:15:04.339Z,98443.13
2023-04-24T05:17:31.954Z,98445.94
2023-04-24T05:19:59.618Z,98443.47
2023-04-24T05:22:27.772Z,98437.28
2023-04-24T05:24:55.467Z,98434.63
2023-04-24T05:27:23.048Z,98437.28
2023-04-24T05:29:50.904Z,98432.81
2023-04-24T05:32:18.518Z,98434.78
2023-04-24T05:34:46.585Z,98434.25
2023-04-24T05:37:14.523Z,98453.88
2023-04-24T05:39:42.874Z,98447.56
2023-04-24T05:42:10.650Z,98440.94
2023-04-24T05:44:38.307Z,98445.78
2023-04-24T05:47:06.571Z,98462.59
2023-04-24T05:49:34.196Z,98452.94
2023-04-24T05:52:01.924Z,98466.94
2023-04-24T05:54:29.566Z,98468.75
2023-04-24T05:56:57.151Z,98461.91
2023-04-24T05:59:26.135Z,98462.22
2023-04-24T06:01:53.806Z,98468.53
2023-04-24T06:04:22.450Z,98464.38
2023-04-24T06:06:52.032Z,98464.50
2023-04-24T06:09:20.208Z,98466.50
2023-04-24T06:11:48.509Z,98473.75
2023-04-24T06:14:16.146Z,98474.53
2023-04-24T06:16:43.992Z,98468.63
2023-04-24T06:19:11.792Z,98467.81
2023-04-24T06:21:39.557Z,98474.53
2023-04-24T06:24:07.521Z,98486.81
2023-04-24T06:26:35.187Z,98482.34
2023-04-24T06:29:03.001Z,98480.50
2023-04-24T06:31:31.023Z,98475.03
2023-04-24T06:33:58.776Z,98475.72
2023-04-24T06:36:26.799Z,98470.78
2023-04-24T06:38:54.496Z,98476.28
2023-04-24T06:41:22.450Z,98480.47
2023-04-24T06:43:50.155Z,98482.16
2023-04-24T06:46:17.904Z,98472.19
2023-04-24T06:48:46.111Z,98474.22
2023-04-24T06:51:13.837Z,98487.03
2023-04-24T06:53:41.441Z,98473.75
2023-04-24T06:56:09.231Z,98475.72
2023-04-24T06:58:37.003Z,98484.19
2023-04-24T07:01:05.047Z,98481.53
2023-04-24T07:03:33.120Z,98477.19
2023-04-24T07:06:01.613Z,98467.56
2023-04-24T07:08:29.378Z,98478.50
2023-04-24T07:10:57.795Z,98484.75
2023-04-24T07:13:26.134Z,98489.47
2023-04-24T07:15:55.239Z,98483.59
2023-04-24T07:18:22.870Z,98482.09
2023-04-24T07:20:51.399Z,98479.53
2023-04-24T07:23:19.083Z,98484.25
2023-04-24T07:25:48.406Z,98487.38
2023-04-24T07:28:16.176Z,98488.06
2023-04-24T07:30:43.797Z,98485.91
2023-04-24T07:33:14.295Z,98482.41
2023-04-24T07:35:42.361Z,98482.19
2023-04-24T07:38:10.393Z,98480.69
2023-04-24T07:40:38.080Z,98485.75
2023-04-24T07:43:06.075Z,98486.31
2023-04-24T07:45:37.264Z,98479.19
2023-04-24T07:48:05.473Z,98479.44
2023-04-24T07:50:34.249Z,98484.16
2023-04-24T07:53:02.054Z,98496.00
2023-04-24T07:55:29.709Z,98507.41
2023-04-24T07:57:57.489Z,98489.31
2023-04-24T08:00:25.230Z,98492.78
2023-04-24T08:02:53.655Z,98502.09
2023-04-24T08:05:21.827Z,98506.81
2023-04-24T08:07:51.560Z,98504.13
2023-04-24T08:10:21.163Z,98510.97
2023-04-24T08:12:49.149Z,98507.84
2023-04-24T08:15:17.129Z,98509.00
2023-04-24T08:17:44.918Z,98521.69
2023-04-24T08:20:14.942Z,98519.63
2023-04-24T08:22:42.691Z,98514.25
2023-04-24T08:25:10.438Z,98517.75
2023-04-24T08:27:40.568Z,98516.91
2023-04-24T08:30:08.295Z,98523.06
2023-04-24T08:32:36.428Z,98522.06
2023-04-24T08:35:04.368Z,98534.72
2023-04-24T08:37:32.182Z,98530.78
2023-04-24T08:40:00.693Z,98535.25
2023-04-24T08:42:28.625Z,98534.06
2023-04-24T08:44:56.486Z,98534.59
2023-04-24T08:47:24.262Z,98533.97
2023-04-24T08:49:52.407Z,98550.75
2023-04-24T08:52:21.654Z,98556.72
2023-04-24T08:54:49.801Z,98560.88
2023-04-24T08:57:17.929Z,98561.34
2023-04-24T08:59:45.853Z,98570.47
2023-04-24T09:02:13.910Z,98565.34
2023-04-24T09:04:42.534Z,98568.59
2023-04-24T09:07:10.647Z,98563.28
2023-04-24T09:09:38.634Z,98570.94
2023-04-24T09:12:06.726Z,98574.00
2023-04-24T09:14:34.652Z,98574.00
2023-04-24T09:17:05.338Z,98578.03
2023-04-24T09:19:33.425Z,98580.72
2023-04-24T09:22:01.211Z,98587.03
2023-04-24T09:24:29.070Z,98580.09
2023-04-24T09:26:57.164Z,98580.78
2023-04-24T09:29:25.374Z,98586.13
2023-04-24T09:31:53.193Z,98594.63
2023-04-24T09:34:21.068Z,98597.56
2023-04-24T09:36:49.341Z,98599.53
2023-04-24T09:39:17.697Z,98607.91
2023-04-24T09:41:46.367Z,98606.53
2023-04-24T09:44:14.358Z,98612.22
2023-04-24T09:46:42.261Z,98613.16
2023-04-24T09:49:10.151Z,98619.31
2023-04-24T09:51:38.740Z,98621.88
2023-04-24T09:54:07.296Z,98628.84
2023-04-24T09:56:35.349Z,98632.06
2023-04-24T09:59:03.298Z,98640.28
2023-04-24T10:01:31.399Z,98643.63
2023-04-24T10:03:59.316Z,98647.81
2023-04-24T10:06:27.870Z,98660.94
2023-04-24T10:08:57.617Z,98665.28
2023-04-24T10:11:25.611Z,98664.16
2023-04-24T10:13:53.554Z,98665.53
2023-04-24T10:16:21.460Z,98676.00
2023-04-24T10:18:50.392Z,98674.91
2023-04-24T10:21:18.295Z,98691.38
2023-04-24T10:23:47.760Z,98694.72
2023-04-24T10:26:18.969Z,98695.56
2023-04-24T10:28:46.842Z,98705.34
2023-04-24T10:31:15.512Z,98724.19
2023-04-24T10:33:43.964Z,98728.66
2023-04-24T10:36:11.800Z,98734.94
2023-04-24T10:38:39.621Z,98740.53
2023-04-24T10:41:07.675Z,98755.03
2023-04-24T10:43:35.930Z,98754.03
2023-04-24T10:46:04.489Z,98777.22
2023-04-24T10:48:32.517Z,98784.59
2023-04-24T10:51:00.267Z,98794.38
2023-04-24T10:53:28.172Z,98810.28
2023-04-24T10:55:56.408Z,98803.44
2023-04-24T10:58:24.090Z,98813.63
2023-04-24T11:00:51.920Z,98812.53
2023-04-24T11:03:20.137Z,98819.50
2023-04-24T11:05:49.104Z,98820.66
2023-04-24T11:08:18.804Z,98819.53
2023-04-24T11:10:46.870Z,98824.56
2023-04-24T11:13:14.889Z,98830.72
2023-04-24T11:15:42.804Z,98845.09
2023-04-24T11:18:10.813Z,98843.00
2023-04-24T11:20:39.561Z,98846.63
2023-04-24T11:23:07.877Z,98843.44
2023-04-24T11:25:35.638Z,98857.28
2023-04-24T11:28:03.529Z,98850.88
2023-04-24T11:30:31.586Z,98862.31
2023-04-24T11:32:59.949Z,98856.47
2023-04-24T11:35:29.870Z,98871.25
2023-04-24T11:40:28.328Z,98878.41
2023-04-24T11:42:56.789Z,98863.59
2023-04-24T11:45:24.819Z,98885.69
2023-04-24T11:47:52.840Z,98886.25
2023-04-24T11:50:20.646Z,98884.41
2023-04-24T11:52:48.478Z,98889.47
2023-04-24T11:55:16.469Z,98895.34
2023-04-24T11:57:46.230Z,98890.31
2023-04-24T12:00:14.367Z,98896.19
2023-04-24T12:02:42.493Z,98897.31
2023-04-24T12:05:10.690Z,98896.75
2023-04-24T12:07:38.703Z,98902.63
2023-04-24T12:10:07.581Z,98903.31
2023-04-24T12:12:35.413Z,98916.91
2023-04-24T12:15:03.588Z,98907.53
2023-04-24T12:17:31.507Z,98906.81
2023-04-24T12:19:59.389Z,98913.25
2023-04-24T12:22:28.275Z,98913.53
2023-04-24T12:24:56.287Z,98917.84
2023-04-24T12:27:24.070Z,98920.50
2023-04-24T12:29:51.889Z,98919.41
2023-04-24T12:32:19.771Z,98934.66
2023-04-24T12:34:47.721Z,98942.63
2023-04-24T12:37:15.872Z,98943.03
2023-04-24T12:39:43.575Z,98941.94
2023-04-24T12:42:11.361Z,98949.91
2023-04-24T12:44:39.164Z,98948.50
2023-04-24T12:47:07.181Z,98954.66
2023-04-24T12:49:34.980Z,98953.25
2023-04-24T12:52:02.897Z,98953.09
2023-04-24T12:54:30.857Z,98955.09
2023-04-24T12:56:58.595Z,98954.19
2023-04-24T12:59:27.673Z,98957.41
2023-04-24T13:01:55.699Z,98947.47
2023-04-24T13:04:23.632Z,98971.94
2023-04-24T13:06:51.589Z,98947.72
2023-04-24T13:09:19.503Z,98953.53
2023-04-24T13:11:47.390Z,98957.44
2023-04-24T13:14:15.279Z,98958.34
2023-04-24T13:16:43.211Z,98964.41
2023-04-24T13:19:11.572Z,98963.78
2023-04-24T13:21:39.404Z,98964.13
2023-04-24T13:24:09.462Z,98969.25
2023-04-24T13:26:37.477Z,98968.88
2023-04-24T13:29:05.561Z,98973.81
2023-04-24T13:31:33.489Z,98982.19
2023-04-24T13:34:01.568Z,98977.97
2023-04-24T13:36:29.854Z,98980.44
2023-04-24T13:38:57.767Z,98985.66
2023-04-24T13:41:25.909Z,98989.50
2023-04-24T13:43:53.747Z,98971.50
2023-04-24T13:46:21.629Z,98976.75
2023-04-24T13:48:50.269Z,98979.50
2023-04-24T13:51:18.186Z,98975.66
2023-04-24T13:53:46.224Z,98980.78
2023-04-24T13:56:15.196Z,98989.16
2023-04-24T13:58:43.089Z,98994.34
2023-04-24T14:01:11.679Z,98996.50
2023-04-24T14:03:40.195Z,99000.22
2023-04-24T14:06:08.654Z,98993.69
2023-04-24T14:08:36.680Z,98995.03
2023-04-24T14:11:04.680Z,99001.84
2023-04-24T14:13:33.576Z,99003.72
2023-04-24T14:16:01.743Z,98997.31
2023-04-24T14:18:29.937Z,99003.09
2023-04-24T14:20:57.869Z,98999.19
2023-04-24T14:23:25.727Z,99004.66
2023-04-24T14:25:55.366Z,99003.84
2023-04-24T14:28:23.370Z,99004.22
2023-04-24T14:30:51.389Z,99011.63
2023-04-24T14:33:19.255Z,99001.66
2023-04-24T14:35:47.145Z,99013.72
2023-04-24T14:38:16.033Z,98998.41
2023-04-24T14:43:14.637Z,99007.97
2023-04-24T14:45:42.684Z,99010.97
2023-04-24T14:48:12.476Z,99013.38
2023-04-24T14:50:41.239Z,99011.84
2023-04-24T14:53:09.253Z,99009.50
2023-04-24T14:55:37.487Z,99012.09
2023-04-24T14:58:05.341Z,99014.13
2023-04-24T15:00:33.305Z,99012.16
2023-04-24T15:03:01.925Z,99018.66
2023-04-24T15:05:30.464Z,99018.13
2023-04-24T15:07:58.555Z,99017.88
2023-04-24T15:10:26.820Z,99016.31
2023-04-24T15:12:54.659Z,99015.38
2023-04-24T15:15:23.455Z,99028.63
2023-04-24T15:17:51.276Z,99021.69
2023-04-24T15:20:19.127Z,99033.22
2023-04-24T15:22:46.917Z,99029.75
2023-04-24T15:25:14.759Z,99030.38
2023-04-24T15:27:43.337Z,99029.84
2023-04-24T15:30:11.257Z,99035.44
2023-04-24T15:32:39.600Z,99036.88
2023-04-24T15:35:09.728Z,99036.78
2023-04-24T15:37:38.314Z,99039.50
2023-04-24T15:40:08.929Z,99052.16
2023-04-24T15:42:36.833Z,99040.03
2023-04-24T15:45:04.852Z,99052.50
2023-04-24T15:47:32.849Z,99058.72
2023-04-24T15:50:00.880Z,99061.56
2023-04-24T15:52:28.913Z,99069.97
2023-04-24T15:54:57.263Z,99068.44
2023-04-24T15:57:25.139Z,99082.59
2023-04-24T15:59:53.036Z,99079.34
2023-04-24T16:02:21.120Z,99067.94
2023-04-24T16:04:50.217Z,99048.00
2023-04-24T16:07:18.753Z,99062.75
2023-04-24T16:09:46.587Z,99057.53
2023-04-24T16:12:14.967Z,99063.69
2023-04-24T16:14:42.967Z,99058.13
2023-04-24T16:17:12.618Z,99054.88
2023-04-24T16:19:40.540Z,99046.16
2023-04-24T16:22:08.399Z,99044.88
2023-04-24T16:24:36.786Z,99056.09
2023-04-24T16:27:04.737Z,99053.41
2023-04-24T16:29:33.168Z,99069.13
2023-04-24T16:32:00.919Z,99072.50
2023-04-24T16:34:28.729Z,99072.16
2023-04-24T16:36:56.618Z,99076.03
2023-04-24T16:39:24.865Z,99081.22
2023-04-24T16:41:56.610Z,99080.16
2023-04-24T16:44:25.754Z,99071.63
2023-04-24T16:46:53.599Z,99080.41
2023-04-24T16:49:21.410Z,99093.59
2023-04-24T16:51:49.251Z,99077.09
2023-04-24T16:54:17.343Z,99082.16
2023-04-24T16:56:45.143Z,99086.66
2023-04-24T16:59:13.078Z,99083.41
2023-04-24T17:01:41.142Z,99079.16
2023-04-24T17:04:08.984Z,99082.91
2023-04-24T17:06:37.709Z,99095.31
2023-04-24T17:09:05.793Z,99085.97
2023-04-24T17:11:33.493Z,99082.78
2023-04-24T17:14:01.343Z,99082.84
2023-04-24T17:16:29.348Z,99088.22
2023-04-24T17:18:57.365Z,99087.13
2023-04-24T17:21:25.256Z,99096.69
2023-04-24T17:23:53.157Z,99092.94
2023-04-24T17:26:21.067Z,99090.00
2023-04-24T17:28:49.447Z,99092.13
2023-04-24T17:31:18.267Z,99097.06
2023-04-24T17:33:46.081Z,99091.44
2023-04-24T17:36:13.872Z,99090.91
2023-04-24T17:38:41.683Z,99095.84
2023-04-24T17:41:09.597Z,99105.06
2023-04-24T17:43:38.128Z,99102.00
2023-04-24T17:46:07.684Z,99106.06
2023-04-24T17:48:35.688Z,99106.50
2023-04-24T17:51:03.620Z,99115.78
2023-04-24T17:53:31.360Z,99100.38
2023-04-24T17:56:02.488Z,99107.91
2023-04-24T17:58:30.444Z,99114.78
2023-04-24T18:00:58.370Z,99127.94
2023-04-24T18:03:26.268Z,99138.16
2023-04-24T18:05:54.420Z,99129.06
2023-04-24T18:08:24.507Z,99143.63
2023-04-24T18:10:52.310Z,99129.75
2023-04-24T18:13:20.138Z,99123.97
2023-04-24T18:15:48.097Z,99133.22
2023-04-24T18:18:17.971Z,99132.78
2023-04-24T18:20:46.539Z,99138.53
2023-04-24T18:23:14.289Z,99144.38
2023-04-24T18:25:42.126Z,99149.00
2023-04-24T18:28:10.158Z,99143.81
2023-04-24T18:30:38.233Z,99142.00
2023-04-24T18:33:06.850Z,99148.56
2023-04-24T18:35:34.734Z,99154.03
2023-04-24T18:38:02.819Z,99149.81
2023-04-24T18:40:30.583Z,99156.25
2023-04-24T18:42:58.479Z,99161.69
2023-04-24T18:45:26.682Z,99156.66
2023-04-24T18:47:54.650Z,99157.88
2023-04-24T18:50:22.574Z,99165.44
2023-04-24T18:52:50.534Z,99169.34
2023-04-24T18:55:18.415Z,99167.94
2023-04-24T18:57:46.601Z,99174.47
2023-04-24T19:00:14.491Z,99185.78
2023-04-24T19:02:42.438Z,99184.88
2023-04-24T19:05:10.807Z,99186.66
2023-04-24T19:07:38.614Z,99186.34
2023-04-24T19:10:07.168Z,99186.13
2023-04-24T19:12:35.254Z,99183.44
2023-04-24T19:15:04.644Z,99187.31
2023-04-24T19:17:32.548Z,99196.63
2023-04-24T19:20:00.542Z,99202.47
2023-04-24T19:22:29.259Z,99209.94
2023-04-24T19:24:58.713Z,99206.97
2023-04-24T19:27:26.663Z,99211.69
2023-04-24T19:29:54.576Z,99209.31
2023-04-24T19:32:22.682Z,99208.03
2023-04-24T19:34:51.603Z,99207.44
2023-04-24T19:37:19.796Z,99207.94
2023-04-24T19:39:47.597Z,99213.72
2023-04-24T19:42:15.550Z,99201.69
2023-04-24T19:44:43.482Z,99210.88
2023-04-24T19:47:11.788Z,99213.91
2023-04-24T19:49:39.720Z,99209.69
2023-04-24T19:52:07.566Z,99213.38
2023-04-24T19:54:35.374Z,99209.16
2023-04-24T19:57:04.109Z,99206.66
2023-04-24T19:59:34.169Z,99206.78
2023-04-24T20:02:02.028Z,99207.03
2023-04-24T20:04:29.959Z,99208.13
2023-04-24T20:06:58.037Z,99205.59
2023-04-24T20:09:25.868Z,99202.34
2023-04-24T20:11:55.086Z,99209.72
2023-04-24T20:14:22.869Z,99206.34
2023-04-24T20:16:51.448Z,99211.16
2023-04-24T20:19:19.464Z,99204.28
2023-04-24T20:21:47.339Z,99205.38
2023-04-24T20:24:17.021Z,99205.53
2023-04-24T20:26:44.825Z,99203.97
2023-04-24T20:29:14.081Z,99207.56
2023-04-24T20:31:41.953Z,99206.88
2023-04-24T20:34:10.053Z,99210.59
2023-04-24T20:36:39.620Z,99216.00
2023-04-24T20:39:08.366Z,99211.69
2023-04-24T20:41:37.071Z,99221.31
2023-04-24T20:44:04.964Z,99215.63
2023-04-24T20:46:32.773Z,99217.09
2023-04-24T20:49:01.093Z,99217.81
2023-04-24T20:51:28.910Z,99208.78
2023-04-24T20:53:56.752Z,99218.28
2023-04-24T20:56:26.091Z,99222.47
2023-04-24T20:58:56.757Z,99219.59
2023-04-24T21:01:26.102Z,99216.69
2023-04-24T21:03:54.607Z,99216.19
2023-04-24T21:06:22.799Z,99220.16
2023-04-24T21:08:50.778Z,99216.31
2023-04-24T21:11:18.713Z,99221.59
2023-04-24T21:13:47.542Z,99212.09
2023-04-24T21:16:15.451Z,99224.03
2023-04-24T21:18:43.435Z,99220.78
2023-04-24T21:21:11.149Z,99222.84
2023-04-24T21:23:39.244Z,99228.97
2023-04-24T21:26:08.386Z,99217.28
2023-04-24T21:28:36.006Z,99212.94
2023-04-24T21:31:03.815Z,99214.16
2023-04-24T21:33:31.677Z,99210.19
2023-04-24T21:35:59.308Z,99207.91
2023-04-24T21:38:27.583Z,99213.59
2023-04-24T21:40:55.388Z,99213.09
2023-04-24T21:43:27.970Z,99224.94
2023-04-24T21:46:05.135Z,99226.38
2023-04-24T21:48:33.356Z,99219.88
2023-04-24T21:51:01.026Z,99216.75
2023-04-24T21:53:29.704Z,99210.00
2023-04-24T21:55:57.354Z,99217.34
2023-04-24T21:58:25.027Z,99212.28
2023-04-24T22:00:53.071Z,99216.97
2023-04-24T22:03:20.952Z,99210.97
2023-04-24T22:05:48.814Z,99212.91
2023-04-24T22:08:16.861Z,99210.50
2023-04-24T22:10:44.522Z,99218.66
2023-04-24T22:13:12.832Z,99206.66
2023-04-24T22:15:40.582Z,99206.03
2023-04-24T22:18:08.403Z,99201.81
2023-04-24T22:20:36.137Z,99200.34
2023-04-24T22:23:04.096Z,99201.69
2023-04-24T22:25:32.182Z,99213.34
2023-04-24T22:27:59.826Z,99205.75
2023-04-24T22:30:27.786Z,99206.97
2023-04-24T22:32:55.509Z,99211.53
2023-04-24T22:35:23.143Z,99207.34
2023-04-24T22:37:51.285Z,99210.81
2023-04-24T22:40:18.939Z,99208.88
2023-04-24T22:42:46.761Z,99219.97
2023-04-24T22:45:15.736Z,99209.97
2023-04-24T22:47:43.430Z,99209.72
2023-04-24T22:50:12.450Z,99207.84
2023-04-24T22:52:41.248Z,99208.56
2023-04-24T22:55:08.924Z,99210.94
2023-04-24T22:57:36.563Z,99205.44
2023-04-24T23:00:06.779Z,99206.16
2023-04-24T23:02:35.256Z,99209.66
2023-04-24T23:05:03.094Z,99216.25
2023-04-24T23:07:30.719Z,99202.53
2023-04-24T23:09:59.641Z,99200.38
2023-04-24T23:12:27.248Z,99201.31
2023-04-24T23:14:55.852Z,99208.66
2023-04-24T23:17:23.478Z,99212.28
2023-04-24T23:19:51.138Z,99200.13
2023-04-24T23:22:18.802Z,99207.34
2023-04-24T23:24:46.428Z,99200.31
2023-04-24T23:27:13.997Z,99196.00
2023-04-24T23:29:41.629Z,99203.13
2023-04-24T23:32:09.277Z,99198.19
2023-04-24T23:34:39.416Z,99202.84
2023-04-24T23:37:07.399Z,99202.34
2023-04-24T23:39:35.303Z,99195.75
2023-04-24T23:42:04.429Z,99214.47
2023-04-24T23:44:32.035Z,99204.13
2023-04-24T23:46:59.878Z,99211.34
2023-04-24T23:49:27.477Z,99205.44
2023-04-24T23:51:56.218Z,99204.59
2023-04-24T23:54:23.811Z,99199.28
2023-04-24T23:56:51.407Z,99194.97
2023-04-24T23:59:20.832Z,99195.94
